Time;durP1;ratioP1;P1;durP2;ratioP2;P2;SDS_P1;SDS_P2;PMS_P1;PMS_P2;Temp;Humidity;BMP_temperature;BMP_pressure;BME280_temperature;BME280_humidity;BME280_pressure;Samples;Min_cycle;Max_cycle;Signal;HPM_P1;HPM_P2
2022/08/15 00:00:56;;;;;;;;;;;25.20;99.90;;;;;;5073974;28;19913;-77
2022/08/15 00:03:22;;;;;;;;;;;25.20;99.90;;;;;;5074203;28;19916;-77
2022/08/15 00:05:48;;;;;;;;;;;25.20;99.90;;;;;;5073580;28;19908;-77
2022/08/15 00:08:14;;;;;;;;;;;25.20;99.90;;;;;;5074059;28;19909;-77
2022/08/15 00:10:44;;;;;;;;;;;25.20;99.90;;;;;;5073855;28;19981;-77
2022/08/15 00:13:14;;;;;;;;;;;25.20;99.90;;;;;;5074184;28;19946;-77
2022/08/15 00:15:40;;;;;;;;;;;25.10;99.90;;;;;;5101292;22;19955;-85
2022/08/15 00:18:06;;;;;;;;;;;25.10;99.90;;;;;;5140011;27;20007;-82
2022/08/15 00:20:32;;;;;;;;;;;25.10;99.90;;;;;;5140312;27;19908;-82
2022/08/15 00:22:58;;;;;;;;;;;25.20;99.90;;;;;;5139222;27;19915;-82
2022/08/15 00:25:23;;;;;;;;;;;25.20;99.90;;;;;;5140275;27;19915;-82
2022/08/15 00:27:49;;;;;;;;;;;25.10;99.90;;;;;;5140214;27;19907;-81
2022/08/15 00:30:15;;;;;;;;;;;25.20;99.90;;;;;;5138638;27;19939;-81
2022/08/15 00:32:40;;;;;;;;;;;25.20;99.90;;;;;;5140740;27;19908;-81
2022/08/15 00:35:35;;;;;;;;;;;25.20;99.80;;;;;;5137352;27;19907;-82
2022/08/15 00:37:55;;;;;;;;;;;25.20;98.60;;;;;;5135412;27;19934;-82
2022/08/15 00:40:24;;;;;;;;;;;25.20;99.90;;;;;;5134082;27;20345;-82
2022/08/15 00:42:50;;;;;;;;;;;25.10;99.90;;;;;;5135567;27;19957;-81
2022/08/15 00:45:16;;;;;;;;;;;25.10;99.90;;;;;;5134045;27;19919;-81
2022/08/15 00:47:42;;;;;;;;;;;25.10;99.90;;;;;;5135167;27;20377;-82
2022/08/15 00:50:09;;;;;;;;;;;25.10;99.90;;;;;;5133882;27;19908;-82
2022/08/15 00:52:35;;;;;;;;;;;25.10;97.20;;;;;;5135221;27;19994;-81
2022/08/15 00:55:03;;;;;;;;;;;25.10;97.80;;;;;;5135220;27;20052;-81
2022/08/15 00:57:34;;;;;;;;;;;25.00;97.30;;;;;;5134872;27;19908;-81
2022/08/15 01:00:01;;;;;;;;;;;25.00;97.60;;;;;;5135016;27;19907;-81
2022/08/15 01:02:28;;;;;;;;;;;25.10;96.80;;;;;;5133735;27;19912;-81
2022/08/15 01:04:54;;;;;;;;;;;25.10;96.70;;;;;;5135095;27;19912;-81
2022/08/15 01:07:20;;;;;;;;;;;25.10;98.80;;;;;;5134510;27;20469;-81
2022/08/15 01:09:46;;;;;;;;;;;25.20;99.90;;;;;;5134852;27;19911;-81
2022/08/15 01:12:13;;;;;;;;;;;25.10;99.10;;;;;;5134720;27;20010;-81
2022/08/15 01:14:40;;;;;;;;;;;25.10;99.10;;;;;;5133427;27;19908;-81
2022/08/15 01:17:07;;;;;;;;;;;25.20;98.20;;;;;;5134195;27;20386;-82
2022/08/15 01:19:34;;;;;;;;;;;25.20;99.90;;;;;;5133415;27;20301;-81
2022/08/15 01:22:09;;;;;;;;;;;25.20;98.00;;;;;;5134391;27;19908;-81
2022/08/15 01:24:45;;;;;;;;;;;25.20;96.30;;;;;;5133321;27;19930;-81
2022/08/15 01:27:11;;;;;;;;;;;25.20;98.30;;;;;;5132980;27;19908;-81
2022/08/15 01:29:36;;;;;;;;;;;25.20;97.10;;;;;;5133265;27;19907;-81
2022/08/15 01:32:02;;;;;;;;;;;25.20;99.80;;;;;;5134209;27;20294;-81
2022/08/15 01:34:28;;;;;;;;;;;25.20;98.70;;;;;;5133073;27;19946;-82
2022/08/15 01:36:53;;;;;;;;;;;25.20;99.50;;;;;;5132622;27;19931;-81
2022/08/15 01:39:26;;;;;;;;;;;25.20;98.30;;;;;;5134090;27;19914;-81
2022/08/15 01:42:05;;;;;;;;;;;25.20;97.10;;;;;;5132699;27;19914;-81
2022/08/15 01:44:37;;;;;;;;;;;25.20;99.90;;;;;;5134071;27;20386;-81
2022/08/15 01:47:03;;;;;;;;;;;25.30;99.90;;;;;;5133554;27;20011;-81
2022/08/15 01:49:36;;;;;;;;;;;25.20;99.90;;;;;;5132999;27;19947;-81
2022/08/15 01:52:03;;;;;;;;;;;25.20;99.90;;;;;;5132571;27;20014;-81
2022/08/15 01:54:32;;;;;;;;;;;25.10;99.50;;;;;;5133951;27;19990;-81
2022/08/15 01:56:58;;;;;;;;;;;25.20;96.80;;;;;;5133368;27;19908;-81
2022/08/15 01:59:24;;;;;;;;;;;25.20;98.10;;;;;;5133845;27;19907;-81
2022/08/15 02:01:51;;;;;;;;;;;25.30;99.90;;;;;;5132419;27;20418;-81
2022/08/15 02:04:18;;;;;;;;;;;25.30;99.90;;;;;;5133680;27;20314;-81
2022/08/15 02:06:44;;;;;;;;;;;25.30;99.90;;;;;;5133219;27;19907;-81
2022/08/15 02:09:12;;;;;;;;;;;25.40;99.20;;;;;;5132482;27;19907;-81
2022/08/15 02:11:39;;;;;;;;;;;25.40;98.70;;;;;;5133181;27;19918;-82
2022/08/15 02:14:05;;;;;;;;;;;25.40;99.30;;;;;;5135128;27;19914;-81
2022/08/15 02:16:33;;;;;;;;;;;25.30;99.90;;;;;;5134560;27;19919;-81
2022/08/15 02:18:59;;;;;;;;;;;25.40;99.90;;;;;;5134935;27;20450;-81
2022/08/15 02:21:25;;;;;;;;;;;25.30;99.90;;;;;;5134647;27;19977;-81
2022/08/15 02:23:50;;;;;;;;;;;25.20;99.90;;;;;;5134955;27;19931;-81
2022/08/15 02:26:16;;;;;;;;;;;25.20;99.90;;;;;;5135480;27;19914;-81
2022/08/15 02:28:42;;;;;;;;;;;25.20;99.90;;;;;;5135738;27;19913;-81
2022/08/15 02:31:10;;;;;;;;;;;25.10;99.90;;;;;;5135380;27;20014;-81
2022/08/15 02:33:35;;;;;;;;;;;25.10;99.90;;;;;;5135332;27;19942;-81
2022/08/15 02:36:01;;;;;;;;;;;25.10;99.90;;;;;;5133718;28;19915;-81
2022/08/15 02:38:27;;;;;;;;;;;25.00;99.90;;;;;;5134981;28;19914;-81
2022/08/15 02:40:53;;;;;;;;;;;24.90;99.90;;;;;;5135244;28;20002;-81
2022/08/15 02:43:19;;;;;;;;;;;24.90;99.90;;;;;;5134682;28;20004;-81
2022/08/15 02:45:47;;;;;;;;;;;24.90;99.90;;;;;;5134565;28;19907;-82
2022/08/15 02:48:13;;;;;;;;;;;24.90;99.90;;;;;;5133999;28;19912;-81
2022/08/15 02:50:39;;;;;;;;;;;24.80;99.90;;;;;;5135026;28;20560;-81
2022/08/15 02:53:09;;;;;;;;;;;24.90;99.90;;;;;;5134644;28;19946;-81
2022/08/15 02:55:34;;;;;;;;;;;24.90;99.90;;;;;;5134977;28;19931;-81
2022/08/15 02:58:00;;;;;;;;;;;24.90;99.90;;;;;;5134030;28;19908;-81
2022/08/15 03:00:27;;;;;;;;;;;24.90;99.90;;;;;;5134557;28;19932;-81
2022/08/15 03:02:57;;;;;;;;;;;24.90;99.90;;;;;;5134304;28;19918;-81
2022/08/15 03:05:24;;;;;;;;;;;25.00;99.90;;;;;;5132662;28;19918;-81
2022/08/15 03:07:50;;;;;;;;;;;25.00;99.90;;;;;;5132703;28;19908;-81
2022/08/15 03:10:15;;;;;;;;;;;25.00;99.90;;;;;;5133976;28;19912;-81
2022/08/15 03:12:53;;;;;;;;;;;25.00;99.90;;;;;;5133713;28;19907;-81
2022/08/15 03:15:22;;;;;;;;;;;25.00;99.90;;;;;;5133025;28;19908;-81
2022/08/15 03:17:47;;;;;;;;;;;25.00;99.90;;;;;;5133053;28;19954;-81
2022/08/15 03:20:13;;;;;;;;;;;25.00;99.90;;;;;;5133118;28;20377;-81
2022/08/15 03:22:45;;;;;;;;;;;25.00;99.90;;;;;;5133279;27;19951;-81
2022/08/15 03:25:11;;;;;;;;;;;25.10;99.90;;;;;;5136889;27;19915;-81
2022/08/15 03:27:36;;;;;;;;;;;25.10;99.90;;;;;;5136870;27;19962;-81
2022/08/15 03:30:07;;;;;;;;;;;25.20;99.90;;;;;;5135591;27;20293;-81
2022/08/15 03:32:40;;;;;;;;;;;25.20;99.90;;;;;;5135595;27;19916;-81
2022/08/15 03:35:06;;;;;;;;;;;25.20;99.90;;;;;;5136518;27;19907;-81
2022/08/15 03:37:31;;;;;;;;;;;25.20;98.20;;;;;;5136421;27;19964;-81
2022/08/15 03:39:57;;;;;;;;;;;25.20;97.90;;;;;;5136617;27;19911;-81
2022/08/15 03:42:23;;;;;;;;;;;25.30;97.60;;;;;;5136777;27;20008;-81
2022/08/15 03:44:49;;;;;;;;;;;25.30;97.40;;;;;;5136576;27;19911;-81
2022/08/15 03:47:14;;;;;;;;;;;25.20;99.00;;;;;;5135996;27;20079;-81
2022/08/15 03:49:40;;;;;;;;;;;25.30;99.20;;;;;;5136525;27;19914;-81
2022/08/15 03:52:06;;;;;;;;;;;25.30;99.90;;;;;;5135345;27;19911;-81
2022/08/15 03:54:32;;;;;;;;;;;25.30;99.90;;;;;;5136473;27;19908;-81
2022/08/15 03:56:57;;;;;;;;;;;25.30;99.10;;;;;;5136133;27;19907;-81
2022/08/15 03:59:23;;;;;;;;;;;25.40;99.90;;;;;;5135091;27;19951;-81
2022/08/15 04:01:49;;;;;;;;;;;25.40;99.90;;;;;;5135120;27;20393;-81
2022/08/15 04:04:14;;;;;;;;;;;25.40;99.90;;;;;;5136358;27;20382;-81
2022/08/15 04:06:40;;;;;;;;;;;25.40;99.90;;;;;;5135776;27;19917;-81
2022/08/15 04:09:06;;;;;;;;;;;25.30;99.90;;;;;;5134881;27;19914;-81
2022/08/15 04:11:31;;;;;;;;;;;25.30;99.90;;;;;;5136286;27;20374;-81
2022/08/15 04:13:58;;;;;;;;;;;25.30;98.00;;;;;;5136247;27;19908;-81
2022/08/15 04:16:25;;;;;;;;;;;25.30;98.40;;;;;;5135247;27;20301;-81
2022/08/15 04:18:50;;;;;;;;;;;25.20;97.50;;;;;;5136093;27;20356;-81
2022/08/15 04:21:16;;;;;;;;;;;25.20;96.90;;;;;;5136486;27;19951;-82
2022/08/15 04:23:42;;;;;;;;;;;25.10;97.00;;;;;;5138398;27;19922;-83
2022/08/15 04:26:08;;;;;;;;;;;25.10;96.70;;;;;;5138651;27;19908;-82
2022/08/15 04:28:34;;;;;;;;;;;25.00;97.20;;;;;;5140743;27;19914;-82
2022/08/15 04:31:00;;;;;;;;;;;25.00;98.70;;;;;;5139470;27;19947;-82
2022/08/15 04:33:27;;;;;;;;;;;25.10;99.40;;;;;;5139958;27;19907;-81
2022/08/15 04:35:58;;;;;;;;;;;25.10;99.90;;;;;;5140090;27;20402;-82
2022/08/15 04:38:23;;;;;;;;;;;25.10;99.70;;;;;;5138692;27;19907;-82
2022/08/15 04:40:49;;;;;;;;;;;25.00;98.30;;;;;;5138946;27;19907;-81
2022/08/15 04:43:15;;;;;;;;;;;25.00;98.90;;;;;;5138848;27;19911;-81
2022/08/15 04:45:40;;;;;;;;;;;25.00;99.20;;;;;;5138001;27;19907;-82
2022/08/15 04:48:07;;;;;;;;;;;25.10;99.40;;;;;;5137070;27;19908;-83
2022/08/15 04:50:34;;;;;;;;;;;25.20;99.90;;;;;;5139232;27;19918;-81
2022/08/15 04:53:00;;;;;;;;;;;25.20;99.90;;;;;;5138418;27;19908;-81
2022/08/15 04:55:26;;;;;;;;;;;25.30;99.90;;;;;;5136741;27;19917;-82
2022/08/15 04:57:53;;;;;;;;;;;25.30;99.70;;;;;;5137636;27;20331;-82
2022/08/15 05:00:20;;;;;;;;;;;25.30;98.80;;;;;;5137410;27;19908;-81
2022/08/15 05:02:59;;;;;;;;;;;25.30;99.90;;;;;;5135803;27;19961;-83
2022/08/15 05:05:25;;;;;;;;;;;25.30;99.90;;;;;;5134271;27;20019;-87
2022/08/15 05:07:50;;;;;;;;;;;25.40;98.60;;;;;;5134351;27;20426;-87
2022/08/15 05:10:16;;;;;;;;;;;25.40;99.90;;;;;;5134211;27;20007;-87
2022/08/15 05:12:42;;;;;;;;;;;25.30;98.50;;;;;;5134224;27;19913;-87
2022/08/15 05:15:08;;;;;;;;;;;25.30;98.00;;;;;;5134390;27;19907;-87
2022/08/15 05:17:34;;;;;;;;;;;25.40;98.20;;;;;;5134050;27;19964;-88
2022/08/15 05:19:59;;;;;;;;;;;25.40;99.70;;;;;;5134033;27;19911;-89
2022/08/15 05:22:25;;;;;;;;;;;25.40;99.90;;;;;;5133950;27;19914;-87
2022/08/15 05:24:50;;;;;;;;;;;25.50;99.90;;;;;;5133999;27;20501;-88
2022/08/15 05:27:16;;;;;;;;;;;25.50;99.90;;;;;;5134995;27;19951;-87
2022/08/15 05:29:42;;;;;;;;;;;25.50;98.70;;;;;;5133842;27;19907;-89
2022/08/15 05:32:08;;;;;;;;;;;25.40;97.70;;;;;;5133615;27;19919;-88
2022/08/15 05:34:34;;;;;;;;;;;25.40;98.40;;;;;;5133733;27;20371;-88
2022/08/15 05:37:01;;;;;;;;;;;25.40;98.80;;;;;;5133645;27;19968;-88
2022/08/15 05:39:28;;;;;;;;;;;25.40;97.90;;;;;;5133725;27;19907;-88
2022/08/15 05:41:56;;;;;;;;;;;25.30;98.90;;;;;;5133679;27;19969;-89
2022/08/15 05:44:29;;;;;;;;;;;25.20;98.90;;;;;;5133426;27;19908;-87
2022/08/15 05:47:14;;;;;;;;;;;25.30;99.40;;;;;;5133075;27;20278;-88
2022/08/15 05:50:03;;;;;;;;;;;25.30;99.90;;;;;;5133627;27;19908;-88
2022/08/15 05:52:32;;;;;;;;;;;25.30;99.90;;;;;;5128882;27;19939;-87
2022/08/15 05:55:16;;;;;;;;;;;25.30;99.90;;;;;;5133866;27;19907;-86
2022/08/15 05:57:42;;;;;;;;;;;25.30;99.90;;;;;;5133493;27;19934;-88
2022/08/15 06:00:10;;;;;;;;;;;25.40;99.90;;;;;;5133430;27;19908;-88
2022/08/15 06:02:47;;;;;;;;;;;25.40;99.90;;;;;;5133344;27;19907;-87
2022/08/15 06:05:13;;;;;;;;;;;25.50;99.90;;;;;;5133230;27;20415;-88
2022/08/15 06:07:45;;;;;;;;;;;25.60;99.90;;;;;;5133176;27;19911;-88
2022/08/15 06:10:13;;;;;;;;;;;25.70;99.90;;;;;;5133190;27;19907;-88
2022/08/15 06:12:44;;;;;;;;;;;25.80;99.90;;;;;;5133062;27;19916;-88
2022/08/15 06:15:16;;;;;;;;;;;25.90;99.50;;;;;;5133112;27;19908;-88
2022/08/15 06:17:43;;;;;;;;;;;25.90;99.90;;;;;;5101030;22;19925;-83
2022/08/15 06:20:17;;;;;;;;;;;25.90;99.90;;;;;;5051303;28;19909;-83
2022/08/15 06:22:45;;;;;;;;;;;25.90;99.90;;;;;;5052709;28;20339;-83
2022/08/15 06:25:29;;;;;;;;;;;25.90;99.90;;;;;;5052549;28;19908;-83
2022/08/15 06:28:10;;;;;;;;;;;26.00;99.60;;;;;;5052246;28;19909;-83
2022/08/15 06:30:48;;;;;;;;;;;26.10;99.90;;;;;;5052411;28;19909;-82
2022/08/15 06:33:24;;;;;;;;;;;26.20;99.90;;;;;;5051150;28;19913;-83
2022/08/15 06:35:59;;;;;;;;;;;26.20;99.90;;;;;;5050975;28;19917;-83
2022/08/15 06:38:43;;;;;;;;;;;26.30;99.30;;;;;;5052068;28;20279;-83
2022/08/15 06:41:27;;;;;;;;;;;26.30;99.10;;;;;;5051219;28;20400;-84
2022/08/15 06:43:53;;;;;;;;;;;26.30;99.70;;;;;;5052335;28;20004;-83
2022/08/15 06:46:21;;;;;;;;;;;26.30;99.90;;;;;;5051999;28;20434;-83
2022/08/15 06:48:47;;;;;;;;;;;26.30;99.50;;;;;;5052130;28;19948;-83
2022/08/15 06:51:14;;;;;;;;;;;26.20;99.70;;;;;;5050988;28;19963;-82
2022/08/15 06:53:44;;;;;;;;;;;26.20;99.90;;;;;;5050739;28;20011;-83
2022/08/15 06:56:28;;;;;;;;;;;26.10;99.90;;;;;;5051204;28;19955;-83
2022/08/15 06:58:57;;;;;;;;;;;26.10;99.90;;;;;;5054885;28;19936;-83
2022/08/15 07:01:31;;;;;;;;;;;26.00;99.70;;;;;;5057253;28;19954;-84
2022/08/15 07:04:05;;;;;;;;;;;26.00;99.90;;;;;;5056135;28;19932;-87
2022/08/15 07:06:48;;;;;;;;;;;25.90;99.90;;;;;;5054542;28;19999;-86
2022/08/15 07:09:13;;;;;;;;;;;25.80;99.90;;;;;;5054816;28;20003;-86
2022/08/15 07:11:42;;;;;;;;;;;25.70;99.90;;;;;;5054898;28;20008;-87
2022/08/15 07:14:10;;;;;;;;;;;25.70;99.90;;;;;;5054580;28;19915;-86
2022/08/15 07:17:03;;;;;;;;;;;25.70;99.90;;;;;;5054163;28;20291;-85
2022/08/15 07:19:28;;;;;;;;;;;25.80;99.90;;;;;;5051607;28;20449;-85
2022/08/15 07:21:54;;;;;;;;;;;25.80;99.90;;;;;;5054544;28;19909;-86
2022/08/15 07:24:19;;;;;;;;;;;25.80;99.90;;;;;;5049557;28;19948;-86
2022/08/15 07:26:47;;;;;;;;;;;25.80;99.90;;;;;;5043216;28;20368;-86
2022/08/15 07:29:16;;;;;;;;;;;25.80;99.90;;;;;;5054362;28;19932;-85
2022/08/15 07:31:43;;;;;;;;;;;25.80;99.90;;;;;;5054052;28;20421;-86
2022/08/15 07:34:25;;;;;;;;;;;25.80;99.90;;;;;;5053913;28;19909;-86
2022/08/15 07:36:54;;;;;;;;;;;25.70;99.90;;;;;;5053748;28;20446;-85
2022/08/15 07:39:28;;;;;;;;;;;25.70;99.90;;;;;;5054507;28;19913;-85
2022/08/15 07:41:53;;;;;;;;;;;25.80;99.90;;;;;;5054623;28;20338;-84
2022/08/15 07:44:22;;;;;;;;;;;25.90;99.90;;;;;;5055931;28;19909;-85
2022/08/15 07:46:54;;;;;;;;;;;25.80;99.90;;;;;;5054831;28;20356;-86
2022/08/15 07:49:25;;;;;;;;;;;25.60;99.90;;;;;;5054024;28;20003;-85
2022/08/15 07:52:17;;;;;;;;;;;25.50;99.90;;;;;;5054055;28;19920;-85
2022/08/15 07:54:56;;;;;;;;;;;25.40;99.90;;;;;;5054069;28;20431;-84
2022/08/15 07:57:28;;;;;;;;;;;25.30;99.90;;;;;;5054654;28;19908;-84
2022/08/15 08:00:13;;;;;;;;;;;25.30;99.90;;;;;;5055284;28;20011;-85
2022/08/15 08:02:40;;;;;;;;;;;25.40;99.90;;;;;;5053821;28;19909;-86
2022/08/15 08:05:06;;;;;;;;;;;25.30;99.90;;;;;;5053666;28;19916;-86
2022/08/15 08:07:35;;;;;;;;;;;25.30;99.90;;;;;;5053220;28;19909;-85
2022/08/15 08:10:11;;;;;;;;;;;25.30;99.90;;;;;;5051847;28;19909;-84
2022/08/15 08:12:42;;;;;;;;;;;25.20;99.90;;;;;;5048831;28;19920;-88
2022/08/15 08:15:19;;;;;;;;;;;25.40;99.90;;;;;;5051937;28;19913;-83
2022/08/15 08:17:48;;;;;;;;;;;25.40;99.90;;;;;;5052862;28;20008;-84
2022/08/15 08:20:16;;;;;;;;;;;25.50;99.90;;;;;;5053394;28;19959;-87
2022/08/15 08:22:51;;;;;;;;;;;25.40;99.90;;;;;;5053500;28;19962;-87
2022/08/15 08:25:23;;;;;;;;;;;25.20;99.90;;;;;;5053688;28;19908;-83
2022/08/15 08:27:52;;;;;;;;;;;25.10;99.90;;;;;;5053384;28;20387;-82
2022/08/15 08:30:23;;;;;;;;;;;25.20;99.90;;;;;;5055050;28;19909;-82
2022/08/15 08:33:09;;;;;;;;;;;25.10;99.90;;;;;;5053793;28;19912;-83
2022/08/15 08:35:55;;;;;;;;;;;25.10;99.90;;;;;;5054846;28;20380;-83
2022/08/15 08:38:21;;;;;;;;;;;25.20;99.90;;;;;;5055116;28;19913;-83
2022/08/15 08:43:41;;;;;;;;;;;25.30;99.90;;;;;;5069095;28;19931;-83
2022/08/15 08:46:19;;;;;;;;;;;25.40;99.90;;;;;;5066808;28;20194;-83
2022/08/15 08:48:59;;;;;;;;;;;25.40;99.90;;;;;;5066559;28;19909;-83
2022/08/15 08:51:34;;;;;;;;;;;25.40;99.90;;;;;;5065922;28;19936;-82
2022/08/15 08:54:18;;;;;;;;;;;25.50;99.90;;;;;;5068636;28;19909;-84
2022/08/15 08:56:45;;;;;;;;;;;25.50;99.90;;;;;;5068237;28;19909;-84
2022/08/15 08:59:17;;;;;;;;;;;25.50;99.90;;;;;;5064782;28;19970;-83
2022/08/15 09:01:43;;;;;;;;;;;25.30;99.90;;;;;;5064623;28;19909;-84
2022/08/15 09:04:15;;;;;;;;;;;25.30;99.90;;;;;;5066228;28;19976;-83
2022/08/15 09:06:42;;;;;;;;;;;25.40;99.90;;;;;;5066843;28;20292;-84
2022/08/15 09:09:24;;;;;;;;;;;25.50;99.90;;;;;;5065284;28;19915;-85
2022/08/15 09:14:56;;;;;;;;;;;25.40;99.90;;;;;;5067848;28;19915;-83
2022/08/15 09:17:24;;;;;;;;;;;25.40;99.90;;;;;;5061554;28;19928;-81
2022/08/15 09:19:54;;;;;;;;;;;25.40;99.90;;;;;;5062218;28;19958;-83
2022/08/15 09:22:19;;;;;;;;;;;25.40;99.90;;;;;;5064370;28;20020;-85
2022/08/15 09:24:45;;;;;;;;;;;25.40;99.90;;;;;;5063352;28;19909;-83
2022/08/15 09:27:16;;;;;;;;;;;25.40;99.90;;;;;;5062738;28;19915;-82
2022/08/15 09:29:44;;;;;;;;;;;25.40;99.90;;;;;;5064523;28;19908;-82
2022/08/15 09:32:16;;;;;;;;;;;25.40;99.90;;;;;;5064904;28;20349;-83
2022/08/15 09:34:41;;;;;;;;;;;25.50;99.90;;;;;;5062524;28;20327;-82
2022/08/15 09:37:19;;;;;;;;;;;25.40;99.90;;;;;;5061729;28;19909;-83
2022/08/15 09:40:12;;;;;;;;;;;25.40;99.90;;;;;;5064087;28;19924;-83
2022/08/15 09:42:57;;;;;;;;;;;25.70;99.90;;;;;;5047223;28;19909;-83
2022/08/15 09:45:34;;;;;;;;;;;26.00;99.90;;;;;;5059413;28;19915;-84
2022/08/15 09:48:20;;;;;;;;;;;26.00;99.90;;;;;;5060007;28;19909;-84
2022/08/15 09:51:02;;;;;;;;;;;26.10;99.90;;;;;;5058447;28;19913;-83
2022/08/15 09:53:33;;;;;;;;;;;26.00;99.90;;;;;;5058162;28;19962;-84
2022/08/15 09:56:04;;;;;;;;;;;25.90;99.90;;;;;;5059743;28;19909;-82
2022/08/15 09:58:31;;;;;;;;;;;25.90;99.90;;;;;;5059708;28;19916;-85
2022/08/15 10:01:07;;;;;;;;;;;26.10;99.90;;;;;;5058558;28;19931;-82
2022/08/15 10:03:45;;;;;;;;;;;26.10;99.90;;;;;;5058499;28;19909;-82
2022/08/15 10:06:19;;;;;;;;;;;26.00;99.90;;;;;;5057451;28;19916;-82
2022/08/15 10:08:54;;;;;;;;;;;25.90;99.90;;;;;;5056967;28;20303;-84
2022/08/15 10:11:30;;;;;;;;;;;25.90;99.90;;;;;;5061300;28;19919;-84
2022/08/15 10:14:05;;;;;;;;;;;25.70;99.90;;;;;;5057077;28;19912;-84
2022/08/15 10:16:36;;;;;;;;;;;25.90;99.90;;;;;;5057368;28;19959;-83
2022/08/15 10:19:09;;;;;;;;;;;25.90;99.90;;;;;;5060048;28;19912;-83
2022/08/15 10:21:35;;;;;;;;;;;26.10;99.90;;;;;;5062783;28;19909;-83
2022/08/15 10:24:07;;;;;;;;;;;26.20;99.90;;;;;;5051503;28;19908;-84
2022/08/15 10:26:36;;;;;;;;;;;26.10;99.90;;;;;;5050683;28;19908;-83
2022/08/15 10:29:08;;;;;;;;;;;26.20;99.90;;;;;;5051408;28;19978;-83
2022/08/15 10:31:50;;;;;;;;;;;26.40;99.90;;;;;;5051966;28;19940;-83
2022/08/15 10:34:17;;;;;;;;;;;26.50;99.90;;;;;;5052339;28;19932;-84
2022/08/15 10:37:02;;;;;;;;;;;26.60;99.90;;;;;;5050604;28;20518;-83
2022/08/15 10:39:33;;;;;;;;;;;26.80;99.90;;;;;;5052328;28;19916;-84
2022/08/15 10:42:08;;;;;;;;;;;26.90;99.90;;;;;;5051286;28;20445;-84
2022/08/15 10:44:53;;;;;;;;;;;26.90;99.90;;;;;;5052249;28;20008;-83
2022/08/15 10:47:25;;;;;;;;;;;27.00;99.90;;;;;;5050539;28;19916;-83
2022/08/15 10:50:12;;;;;;;;;;;26.90;99.90;;;;;;5051172;28;19975;-83
2022/08/15 10:53:04;;;;;;;;;;;26.80;99.90;;;;;;5058639;28;20008;-83
2022/08/15 10:55:32;;;;;;;;;;;26.60;99.90;;;;;;5030557;28;19916;-82
2022/08/15 10:58:09;;;;;;;;;;;26.50;99.90;;;;;;5045160;28;19909;-83
2022/08/15 11:00:41;;;;;;;;;;;26.40;99.90;;;;;;5050626;28;19916;-83
2022/08/15 11:03:11;;;;;;;;;;;26.20;99.90;;;;;;5052972;28;19916;-83
2022/08/15 11:05:36;;;;;;;;;;;25.90;99.90;;;;;;5067574;28;19913;-83
2022/08/15 11:08:03;;;;;;;;;;;25.80;99.90;;;;;;5058723;28;20283;-83
2022/08/15 11:10:30;;;;;;;;;;;25.60;99.90;;;;;;5061594;28;19916;-85
2022/08/15 11:12:59;;;;;;;;;;;25.50;99.90;;;;;;5063538;28;19909;-83
2022/08/15 11:15:30;;;;;;;;;;;25.40;99.90;;;;;;5058282;28;20324;-83
2022/08/15 11:18:00;;;;;;;;;;;25.40;99.90;;;;;;5047650;28;19917;-83
2022/08/15 11:20:34;;;;;;;;;;;25.30;99.90;;;;;;5043691;28;19909;-83
2022/08/15 11:23:00;;;;;;;;;;;25.30;99.90;;;;;;5050386;28;20352;-84
2022/08/15 11:25:27;;;;;;;;;;;25.30;99.90;;;;;;5042285;28;19948;-83
2022/08/15 11:27:58;;;;;;;;;;;25.30;99.90;;;;;;5051657;28;20099;-84
2022/08/15 11:30:24;;;;;;;;;;;25.10;99.90;;;;;;5052045;28;19913;-83
2022/08/15 11:32:52;;;;;;;;;;;24.80;99.90;;;;;;5045186;28;19913;-84
2022/08/15 11:35:20;;;;;;;;;;;24.50;99.90;;;;;;5055242;28;19908;-83
2022/08/15 11:37:46;;;;;;;;;;;24.40;99.90;;;;;;5041920;28;19999;-84
2022/08/15 11:40:24;;;;;;;;;;;24.40;99.90;;;;;;5050625;28;19944;-83
2022/08/15 11:42:50;;;;;;;;;;;24.40;99.90;;;;;;5051895;28;19915;-83
2022/08/15 11:45:20;;;;;;;;;;;24.60;99.90;;;;;;5054307;28;19908;-82
2022/08/15 11:47:48;;;;;;;;;;;24.80;99.90;;;;;;5053986;28;19909;-84
2022/08/15 11:50:31;;;;;;;;;;;24.80;99.90;;;;;;5054356;28;20284;-83
2022/08/15 11:52:59;;;;;;;;;;;24.90;99.90;;;;;;5055436;28;20318;-83
2022/08/15 11:55:25;;;;;;;;;;;24.90;99.90;;;;;;5054002;28;19912;-83
2022/08/15 11:57:52;;;;;;;;;;;25.10;99.90;;;;;;5047796;28;19919;-83
2022/08/15 12:00:24;;;;;;;;;;;25.30;99.90;;;;;;5051055;28;19909;-82
2022/08/15 12:02:49;;;;;;;;;;;25.40;99.90;;;;;;5053914;28;19909;-84
2022/08/15 12:05:17;;;;;;;;;;;25.50;99.90;;;;;;5042291;28;19916;-84
2022/08/15 12:07:45;;;;;;;;;;;25.60;99.90;;;;;;5045076;28;19909;-84
2022/08/15 12:10:25;;;;;;;;;;;25.70;99.90;;;;;;5055234;28;19909;-83
2022/08/15 12:12:51;;;;;;;;;;;25.80;99.90;;;;;;5054662;28;20395;-83
2022/08/15 12:15:21;;;;;;;;;;;26.00;99.90;;;;;;5053288;28;19916;-83
2022/08/15 12:20:32;;;;;;;;;;;26.40;99.90;;;;;;5084738;28;19929;-77
2022/08/15 12:23:18;;;;;;;;;;;26.40;99.90;;;;;;5071239;28;20283;-77
2022/08/15 12:25:43;;;;;;;;;;;26.40;99.90;;;;;;5069017;28;20259;-78
2022/08/15 12:28:09;;;;;;;;;;;26.40;99.90;;;;;;5077793;28;19922;-78
2022/08/15 12:30:35;;;;;;;;;;;26.20;99.90;;;;;;5072179;28;19920;-77
2022/08/15 12:33:00;;;;;;;;;;;26.30;99.90;;;;;;5074402;28;19931;-77
2022/08/15 12:35:30;;;;;;;;;;;26.10;99.90;;;;;;5076271;28;19944;-77
2022/08/15 12:37:56;;;;;;;;;;;26.10;99.90;;;;;;5076020;28;19975;-77
2022/08/15 12:40:22;;;;;;;;;;;26.00;99.90;;;;;;5076635;28;20002;-77
2022/08/15 12:42:48;;;;;;;;;;;25.80;99.90;;;;;;5076317;28;20007;-77
2022/08/15 12:45:15;;;;;;;;;;;25.60;99.90;;;;;;5075985;28;19955;-77
2022/08/15 12:47:42;;;;;;;;;;;25.60;99.90;;;;;;5075826;28;19914;-77
2022/08/15 12:50:08;;;;;;;;;;;25.70;99.90;;;;;;5075811;28;19915;-77
2022/08/15 12:52:36;;;;;;;;;;;25.70;99.90;;;;;;5075790;28;20295;-77
2022/08/15 12:55:02;;;;;;;;;;;25.80;99.90;;;;;;5075553;28;19908;-76
2022/08/15 12:57:28;;;;;;;;;;;25.90;99.90;;;;;;5075948;28;19922;-76
2022/08/15 12:59:54;;;;;;;;;;;26.10;99.90;;;;;;5075776;28;20396;-76
2022/08/15 13:02:19;;;;;;;;;;;26.20;99.90;;;;;;5075860;28;19912;-76
2022/08/15 13:04:48;;;;;;;;;;;26.50;99.90;;;;;;5063345;28;19919;-80
2022/08/15 13:07:14;;;;;;;;;;;26.70;99.90;;;;;;5059297;28;19912;-76
2022/08/15 13:09:40;;;;;;;;;;;27.00;99.90;;;;;;5064339;28;19908;-77
2022/08/15 13:12:06;;;;;;;;;;;27.20;99.90;;;;;;5075222;28;19913;-76
2022/08/15 13:14:32;;;;;;;;;;;27.30;99.90;;;;;;5074952;28;20006;-76
2022/08/15 13:16:59;;;;;;;;;;;27.30;99.90;;;;;;5074900;28;19908;-76
2022/08/15 13:25:14;;;;;;;;;;;27.90;99.90;;;;;;5093468;28;19915;-76
2022/08/15 13:27:40;;;;;;;;;;;28.20;99.90;;;;;;5074731;28;19935;-76
2022/08/15 13:30:08;;;;;;;;;;;28.40;99.90;;;;;;5074880;28;20356;-76
2022/08/15 13:32:35;;;;;;;;;;;28.50;99.90;;;;;;5071395;28;19916;-76
2022/08/15 13:35:00;;;;;;;;;;;28.70;99.90;;;;;;5074988;28;20426;-76
2022/08/15 13:37:27;;;;;;;;;;;28.90;99.90;;;;;;5064536;28;20027;-76
2022/08/15 13:39:56;;;;;;;;;;;29.20;99.90;;;;;;5068039;28;20030;-76
2022/08/15 13:42:25;;;;;;;;;;;29.40;99.90;;;;;;5074505;28;20401;-76
2022/08/15 13:44:53;;;;;;;;;;;29.90;99.90;;;;;;5075099;28;20275;-76
2022/08/15 13:47:21;;;;;;;;;;;30.20;99.90;;;;;;5074467;28;19961;-76
2022/08/15 13:49:46;;;;;;;;;;;30.50;99.90;;;;;;5075164;28;20321;-77
2022/08/15 13:52:14;;;;;;;;;;;30.70;99.20;;;;;;5073980;28;19973;-77
2022/08/15 13:54:40;;;;;;;;;;;30.80;99.90;;;;;;5074979;28;19919;-77
2022/08/15 13:57:06;;;;;;;;;;;31.00;99.20;;;;;;5074382;28;20363;-76
2022/08/15 13:59:33;;;;;;;;;;;31.00;97.20;;;;;;5075173;28;19962;-77
2022/08/15 14:01:59;;;;;;;;;;;30.90;96.70;;;;;;5074560;28;20317;-76
2022/08/15 14:04:31;;;;;;;;;;;30.90;96.50;;;;;;5074459;28;19954;-76
2022/08/15 14:06:58;;;;;;;;;;;30.90;96.50;;;;;;5073766;28;19909;-76
2022/08/15 14:09:24;;;;;;;;;;;31.00;97.10;;;;;;5074461;28;20394;-76
2022/08/15 14:11:50;;;;;;;;;;;30.80;95.50;;;;;;5074465;28;19912;-76
2022/08/15 14:14:16;;;;;;;;;;;31.00;97.40;;;;;;5074847;28;19916;-77
2022/08/15 14:16:43;;;;;;;;;;;31.10;96.70;;;;;;5073990;28;19915;-77
2022/08/15 14:19:10;;;;;;;;;;;31.20;97.30;;;;;;5074620;28;19985;-76
2022/08/15 14:21:36;;;;;;;;;;;31.40;98.00;;;;;;5074795;28;19930;-77
2022/08/15 14:24:02;;;;;;;;;;;31.10;95.30;;;;;;5074923;28;19908;-77
2022/08/15 14:26:30;;;;;;;;;;;30.40;95.80;;;;;;5072835;28;19908;-77
2022/08/15 14:28:56;;;;;;;;;;;30.20;96.20;;;;;;5074325;28;19999;-77
2022/08/15 14:31:22;;;;;;;;;;;30.20;97.00;;;;;;5069793;28;20019;-77
2022/08/15 14:33:47;;;;;;;;;;;30.10;97.10;;;;;;5067708;28;19909;-77
2022/08/15 14:36:13;;;;;;;;;;;30.10;98.30;;;;;;5074336;28;19908;-77
2022/08/15 14:38:39;;;;;;;;;;;30.10;97.30;;;;;;5074112;28;19916;-76
2022/08/15 14:41:06;;;;;;;;;;;29.90;96.20;;;;;;5074017;28;19931;-76
2022/08/15 14:43:32;;;;;;;;;;;29.60;96.20;;;;;;5074028;28;20568;-76